Time;durP1;ratioP1;P1;durP2;ratioP2;P2;SDS_P1;SDS_P2;PMS_P1;PMS_P2;Temp;Humidity;BMP_temperature;BMP_pressure;BME280_temperature;BME280_humidity;BME280_pressure;Samples;Min_cycle;Max_cycle;Signal;HPM_P1;HPM_P2
2023/01/12 00:01:56;;;;;;;6.67;1.70;;;7.50;99.90;;;;;;5034556;28;20575;-59
2023/01/12 00:04:23;;;;;;;5.13;1.77;;;7.40;99.90;;;;;;5034733;28;20237;-59
2023/01/12 00:06:50;;;;;;;4.07;1.40;;;7.40;99.90;;;;;;5034714;28;20207;-59
2023/01/12 00:09:16;;;;;;;3.67;1.20;;;7.40;99.90;;;;;;5034529;28;20226;-59
2023/01/12 00:11:43;;;;;;;4.07;1.40;;;7.50;99.90;;;;;;5033985;28;20663;-59
2023/01/12 00:14:11;;;;;;;7.90;1.87;;;7.40;99.90;;;;;;5033796;28;20214;-59
2023/01/12 00:16:38;;;;;;;5.67;1.30;;;7.40;99.90;;;;;;5037168;28;20681;-59
2023/01/12 00:19:09;;;;;;;4.57;1.23;;;7.50;99.90;;;;;;5036711;28;20225;-58
2023/01/12 00:21:48;;;;;;;5.03;1.50;;;7.40;99.90;;;;;;5036754;28;20240;-60
2023/01/12 00:24:16;;;;;;;4.53;1.30;;;7.50;99.90;;;;;;5036718;28;20206;-60
2023/01/12 00:26:42;;;;;;;5.73;1.63;;;7.50;99.90;;;;;;5036886;28;20213;-60
2023/01/12 00:29:10;;;;;;;5.47;1.63;;;7.50;99.90;;;;;;5037022;28;20268;-57
2023/01/12 00:31:37;;;;;;;4.17;1.70;;;7.50;99.90;;;;;;5036895;28;20666;-59
2023/01/12 00:34:04;;;;;;;4.03;1.30;;;7.40;99.90;;;;;;5036646;28;20214;-59
2023/01/12 00:36:31;;;;;;;8.03;1.53;;;7.50;99.90;;;;;;5037091;28;20207;-59
2023/01/12 00:38:57;;;;;;;5.63;1.63;;;7.60;99.90;;;;;;5037142;28;20226;-59
2023/01/12 00:46:51;;;;;;;3.83;1.50;;;7.90;99.90;;;;;;5036139;28;20263;-59
2023/01/12 00:49:18;;;;;;;3.93;1.50;;;8.00;99.90;;;;;;5036175;28;20230;-59
2023/01/12 00:51:45;;;;;;;3.23;1.40;;;8.00;99.90;;;;;;5036607;28;20206;-59
2023/01/12 00:54:11;;;;;;;3.33;1.30;;;8.00;99.90;;;;;;5036272;28;20218;-59
2023/01/12 00:56:39;;;;;;;2.43;1.10;;;7.90;99.90;;;;;;5036228;28;20593;-59
2023/01/12 00:59:06;;;;;;;5.83;1.70;;;7.90;99.90;;;;;;5035945;28;20224;-59
2023/01/12 01:01:34;;;;;;;3.90;1.37;;;7.80;99.90;;;;;;5036717;28;20210;-60
2023/01/12 01:04:02;;;;;;;1.73;1.07;;;7.70;99.90;;;;;;5036518;28;20214;-59
2023/01/12 01:06:29;;;;;;;3.37;1.30;;;7.70;99.90;;;;;;5036583;28;20211;-59
2023/01/12 01:08:56;;;;;;;5.77;1.40;;;7.70;99.90;;;;;;5036548;28;20245;-59
2023/01/12 01:11:22;;;;;;;3.47;1.20;;;7.70;99.90;;;;;;5036231;28;20206;-59
2023/01/12 01:13:50;;;;;;;4.40;1.47;;;7.70;99.90;;;;;;5036585;28;20689;-58
2023/01/12 01:16:18;;;;;;;1.70;1.13;;;7.70;99.90;;;;;;5036448;28;20249;-58
2023/01/12 01:18:45;;;;;;;6.47;1.13;;;7.70;99.90;;;;;;5036363;28;20575;-58
2023/01/12 01:21:14;;;;;;;5.40;1.27;;;7.70;99.90;;;;;;5036350;28;20718;-59
2023/01/12 01:23:41;;;;;;;4.97;1.30;;;7.70;99.90;;;;;;5036132;28;20670;-59
2023/01/12 01:26:11;;;;;;;6.43;1.53;;;7.60;99.90;;;;;;5035915;28;20229;-59
2023/01/12 01:28:38;;;;;;;5.47;1.40;;;7.60;99.90;;;;;;5036463;28;20237;-59
2023/01/12 01:31:06;;;;;;;3.93;1.70;;;7.60;99.90;;;;;;5036487;28;20294;-59
2023/01/12 01:33:33;;;;;;;2.17;0.90;;;7.60;99.90;;;;;;5036432;28;20264;-59
2023/01/12 01:36:00;;;;;;;6.03;1.50;;;7.50;99.90;;;;;;5035661;28;20213;-59
2023/01/12 01:38:28;;;;;;;3.23;1.40;;;7.50;99.90;;;;;;5036387;28;20223;-59
2023/01/12 01:40:55;;;;;;;3.33;1.37;;;7.60;99.90;;;;;;5036142;28;20224;-59
2023/01/12 01:43:24;;;;;;;7.10;1.67;;;7.80;99.90;;;;;;5036303;28;20206;-59
2023/01/12 01:45:57;;;;;;;7.00;2.00;;;7.80;99.90;;;;;;5036705;28;20210;-59
2023/01/12 01:48:25;;;;;;;5.77;1.50;;;7.90;99.90;;;;;;5037074;28;20249;-59
2023/01/12 01:50:57;;;;;;;6.30;1.60;;;8.10;99.90;;;;;;5036464;28;20748;-60
2023/01/12 01:53:27;;;;;;;5.40;1.43;;;8.20;99.90;;;;;;5036371;28;20686;-60
2023/01/12 01:55:59;;;;;;;3.63;1.13;;;8.20;99.90;;;;;;5036807;28;20344;-60
2023/01/12 01:58:30;;;;;;;3.40;1.27;;;8.20;99.90;;;;;;5036903;28;20244;-60
2023/01/12 02:00:58;;;;;;;2.57;1.30;;;8.30;99.90;;;;;;5035948;28;20230;-60
2023/01/12 02:03:26;;;;;;;5.47;1.60;;;8.20;99.90;;;;;;5036826;28;20578;-60
2023/01/12 02:05:54;;;;;;;6.27;1.10;;;8.20;99.90;;;;;;5036199;28;20210;-59
2023/01/12 02:08:25;;;;;;;2.57;1.10;;;8.20;99.90;;;;;;5036211;28;20778;-60
2023/01/12 02:10:53;;;;;;;3.33;1.20;;;8.30;99.90;;;;;;5036399;28;20234;-59
2023/01/12 02:16:20;;;;;;;3.87;1.07;;;8.40;99.90;;;;;;5034563;28;20305;-59
2023/01/12 02:18:57;;;;;;;5.43;1.17;;;8.50;99.90;;;;;;5035326;28;20309;-59
2023/01/12 02:22:02;;;;;;;3.87;1.30;;;8.50;99.90;;;;;;5036047;28;20230;-59
2023/01/12 02:25:04;;;;;;;7.67;1.23;;;8.60;99.90;;;;;;5037302;28;20222;-59
2023/01/12 02:27:48;;;;;;;4.77;1.33;;;8.60;99.90;;;;;;5009748;28;20784;-59
2023/01/12 02:30:46;;;;;;;2.90;1.23;;;8.60;99.90;;;;;;5036251;28;20489;-59
2023/01/12 02:33:29;;;;;;;3.23;1.00;;;8.70;99.90;;;;;;5034507;28;20690;-59
2023/01/12 02:36:02;;;;;;;4.60;1.20;;;8.80;99.90;;;;;;5033864;28;20206;-60
2023/01/12 02:38:36;;;;;;;4.13;1.23;;;8.80;99.90;;;;;;5033677;28;20226;-59
2023/01/12 02:41:11;;;;;;;3.27;1.10;;;8.80;99.90;;;;;;5034062;28;20742;-59
2023/01/12 02:43:38;;;;;;;2.40;1.03;;;8.70;99.90;;;;;;5034125;28;20198;-59
2023/01/12 02:46:13;;;;;;;5.57;1.20;;;8.70;99.90;;;;;;5033723;28;20201;-59
2023/01/12 02:48:46;;;;;;;5.70;1.50;;;8.80;99.90;;;;;;5034423;28;20325;-58
2023/01/12 02:51:17;;;;;;;5.43;1.50;;;9.00;99.90;;;;;;5035074;28;20210;-59
2023/01/12 02:53:48;;;;;;;3.73;1.53;;;9.00;99.90;;;;;;5033466;28;20206;-59
2023/01/12 02:56:20;;;;;;;5.80;1.37;;;9.00;99.90;;;;;;5033480;28;20285;-60
2023/01/12 02:58:50;;;;;;;6.13;1.47;;;9.10;99.90;;;;;;5033868;28;20229;-59
2023/01/12 03:01:19;;;;;;;6.77;1.53;;;9.20;99.90;;;;;;5034371;28;20222;-59
2023/01/12 03:03:48;;;;;;;3.47;1.30;;;9.20;99.90;;;;;;5034328;28;20210;-59
2023/01/12 03:06:16;;;;;;;6.00;1.37;;;9.30;99.90;;;;;;5034107;28;20209;-59
2023/01/12 03:08:44;;;;;;;7.63;1.60;;;9.30;99.90;;;;;;5034189;28;20230;-59
2023/01/12 03:11:13;;;;;;;5.90;1.37;;;9.30;99.90;;;;;;5034288;28;20737;-59
2023/01/12 03:13:45;;;;;;;6.80;1.63;;;9.30;99.90;;;;;;5034215;28;20241;-59
2023/01/12 03:16:16;;;;;;;3.87;1.23;;;9.20;99.90;;;;;;5034708;28;20210;-59
2023/01/12 03:18:48;;;;;;;4.30;0.93;;;9.20;99.90;;;;;;5034776;28;20240;-59
2023/01/12 03:21:22;;;;;;;4.67;1.63;;;9.20;99.90;;;;;;5035066;28;20230;-60
2023/01/12 03:23:54;;;;;;;2.87;1.20;;;9.20;99.90;;;;;;5034487;28;20209;-60
2023/01/12 03:26:26;;;;;;;6.77;1.40;;;9.30;99.90;;;;;;5036105;28;20226;-60
2023/01/12 03:28:58;;;;;;;3.70;1.23;;;9.30;99.90;;;;;;5035852;28;20271;-60
2023/01/12 03:31:25;;;;;;;6.57;1.53;;;9.30;99.90;;;;;;5036215;28;20217;-60
2023/01/12 03:33:52;;;;;;;5.17;1.57;;;9.30;99.90;;;;;;5034755;28;20654;-60
2023/01/12 03:36:31;;;;;;;4.53;1.57;;;9.30;99.90;;;;;;5034720;28;20214;-60
2023/01/12 03:39:07;;;;;;;4.77;1.50;;;9.40;99.90;;;;;;5034716;28;20226;-60
2023/01/12 03:41:45;;;;;;;7.03;1.53;;;9.40;99.90;;;;;;5034888;28;20221;-60
2023/01/12 03:44:20;;;;;;;5.90;1.67;;;9.40;99.90;;;;;;5034350;28;20210;-60
2023/01/12 03:46:53;;;;;;;5.17;1.40;;;9.40;99.90;;;;;;5034450;28;20201;-60
2023/01/12 03:49:26;;;;;;;4.33;1.20;;;9.50;99.90;;;;;;5034645;28;20238;-59
2023/01/12 03:51:57;;;;;;;5.97;1.30;;;9.50;99.90;;;;;;5038495;28;20212;-60
2023/01/12 03:54:25;;;;;;;7.43;1.83;;;9.50;99.90;;;;;;5038831;28;20206;-59
2023/01/12 03:56:54;;;;;;;4.27;1.23;;;9.40;99.90;;;;;;5038217;28;20232;-60
2023/01/12 03:59:21;;;;;;;7.00;1.50;;;9.40;99.90;;;;;;5038596;28;20226;-60
2023/01/12 04:01:49;;;;;;;5.57;1.67;;;9.40;99.90;;;;;;5038645;28;20232;-60
2023/01/12 04:04:16;;;;;;;5.87;1.60;;;9.50;99.90;;;;;;5038649;28;20292;-60
2023/01/12 04:06:43;;;;;;;6.13;1.43;;;9.50;99.90;;;;;;5038229;28;20244;-59
2023/01/12 04:09:11;;;;;;;6.87;1.60;;;9.50;99.90;;;;;;5038464;28;20718;-59
2023/01/12 04:14:22;;;;;;;14.40;9.57;;;9.50;99.90;;;;;;5038437;28;20201;-59
2023/01/12 04:16:49;;;;;;;6.00;2.93;;;9.50;99.90;;;;;;5038877;28;20237;-60
2023/01/12 04:19:16;;;;;;;5.37;1.50;;;9.50;99.90;;;;;;5038432;28;20293;-61
2023/01/12 04:24:28;;;;;;;7.30;2.63;;;9.50;99.90;;;;;;5038069;28;20579;-59
2023/01/12 04:26:55;;;;;;;10.70;3.13;;;9.50;99.90;;;;;;5038269;28;20206;-60
2023/01/12 04:29:22;;;;;;;7.67;2.00;;;9.50;99.90;;;;;;5038748;28;20226;-61
2023/01/12 04:31:48;;;;;;;7.47;1.90;;;9.50;99.90;;;;;;5039094;28;20206;-59
2023/01/12 04:34:15;;;;;;;7.97;1.87;;;9.60;99.90;;;;;;5038797;28;20301;-60
2023/01/12 04:36:42;;;;;;;7.17;1.77;;;9.60;99.90;;;;;;5038265;28;20221;-62
2023/01/12 04:39:09;;;;;;;4.73;1.77;;;9.60;99.90;;;;;;5038952;28;20688;-60
2023/01/12 04:41:37;;;;;;;6.47;2.17;;;9.60;99.90;;;;;;5038111;28;20236;-59
2023/01/12 04:44:04;;;;;;;7.57;2.80;;;9.50;99.90;;;;;;5037470;28;20210;-59
2023/01/12 04:46:31;;;;;;;7.50;2.37;;;9.40;99.90;;;;;;5038123;28;20229;-59
2023/01/12 04:48:58;;;;;;;9.43;2.63;;;9.50;99.90;;;;;;5038196;28;20234;-59
2023/01/12 04:51:25;;;;;;;5.80;1.70;;;9.50;99.90;;;;;;5037980;28;20202;-59
2023/01/12 04:53:52;;;;;;;5.80;1.70;;;9.40;99.90;;;;;;5038585;28;20268;-60
2023/01/12 04:56:19;;;;;;;8.17;1.50;;;9.40;99.90;;;;;;5038269;28;20296;-60
2023/01/12 04:58:47;;;;;;;5.90;2.17;;;9.30;99.90;;;;;;5039206;28;20229;-64
2023/01/12 05:01:16;;;;;;;8.93;2.33;;;9.20;99.90;;;;;;5037656;28;20240;-60
2023/01/12 05:03:43;;;;;;;3.20;1.80;;;9.30;99.90;;;;;;5037913;28;20194;-59
2023/01/12 05:06:11;;;;;;;7.23;1.93;;;9.20;99.90;;;;;;5037733;28;20749;-59
2023/01/12 05:11:27;;;;;;;5.47;1.87;;;9.30;99.90;;;;;;5036872;28;20264;-60
2023/01/12 05:13:55;;;;;;;8.00;3.47;;;9.40;99.90;;;;;;5037177;28;20392;-60
2023/01/12 05:16:22;;;;;;;12.63;2.40;;;9.50;99.90;;;;;;5036282;28;20234;-59
2023/01/12 05:18:49;;;;;;;8.10;2.43;;;9.50;99.90;;;;;;5036522;28;20422;-59
2023/01/12 05:21:17;;;;;;;8.83;2.33;;;9.50;99.90;;;;;;5036426;28;20307;-60
2023/01/12 05:23:45;;;;;;;8.77;2.30;;;9.60;99.90;;;;;;5036712;28;20207;-60
2023/01/12 05:26:12;;;;;;;6.43;2.03;;;9.60;99.90;;;;;;5036376;28;20206;-60
2023/01/12 05:28:39;;;;;;;7.37;2.20;;;9.60;99.90;;;;;;5036255;28;20317;-60
2023/01/12 05:31:09;;;;;;;12.60;5.23;;;9.60;99.90;;;;;;5037731;28;20202;-60
2023/01/12 05:33:37;;;;;;;9.57;1.73;;;9.70;99.90;;;;;;5038861;28;20213;-60
2023/01/12 05:36:05;;;;;;;6.50;2.10;;;9.60;99.90;;;;;;5037089;28;20614;-59
2023/01/12 05:38:31;;;;;;;10.20;2.40;;;9.70;99.90;;;;;;5038510;28;20233;-60
2023/01/12 05:40:59;;;;;;;11.73;2.90;;;9.80;99.90;;;;;;5036135;28;20292;-61
2023/01/12 05:46:12;;;;;;;8.57;1.67;;;9.80;99.90;;;;;;5036296;28;20212;-60
2023/01/12 05:48:38;;;;;;;5.63;2.10;;;9.90;99.90;;;;;;5035387;28;20750;-59
2023/01/12 05:51:07;;;;;;;8.37;1.80;;;9.90;99.90;;;;;;5035246;28;20566;-60
2023/01/12 05:53:34;;;;;;;6.30;1.90;;;9.90;99.90;;;;;;5035263;28;20202;-60
2023/01/12 05:56:07;;;;;;;7.73;1.80;;;10.00;99.90;;;;;;5035203;28;20207;-59
2023/01/12 05:58:33;;;;;;;8.57;2.73;;;10.10;99.90;;;;;;5036628;28;20238;-60
2023/01/12 06:01:00;;;;;;;5.63;1.87;;;10.10;99.90;;;;;;5036074;28;20226;-60
2023/01/12 06:03:28;;;;;;;10.07;2.20;;;10.10;99.90;;;;;;5035881;28;20213;-60
2023/01/12 06:05:57;;;;;;;6.83;2.10;;;10.20;99.90;;;;;;5035088;28;20245;-59
2023/01/12 06:08:24;;;;;;;7.40;2.30;;;10.20;99.90;;;;;;5035255;28;20648;-60
2023/01/12 06:10:51;;;;;;;8.03;1.97;;;10.30;99.90;;;;;;5035231;28;20206;-59
2023/01/12 06:16:04;;;;;;;6.53;1.70;;;10.10;99.90;;;;;;5034925;28;20235;-60
2023/01/12 06:18:34;;;;;;;7.63;1.80;;;10.00;99.90;;;;;;5035214;28;20226;-60
2023/01/12 06:21:01;;;;;;;10.00;1.90;;;9.90;99.90;;;;;;5034828;28;20226;-60
2023/01/12 06:23:28;;;;;;;7.13;1.70;;;9.80;99.90;;;;;;5035264;28;20222;-60
2023/01/12 06:25:55;;;;;;;8.83;1.97;;;9.80;99.90;;;;;;5034392;28;20615;-59
2023/01/12 06:28:22;;;;;;;4.47;1.67;;;9.60;99.90;;;;;;5034745;28;20230;-61
2023/01/12 06:30:56;;;;;;;5.40;1.80;;;9.50;99.90;;;;;;5034813;28;20586;-60
2023/01/12 06:33:23;;;;;;;9.17;2.27;;;9.50;99.90;;;;;;5034876;28;20244;-60
2023/01/12 06:35:52;;;;;;;8.20;1.60;;;9.40;99.90;;;;;;5034661;28;20225;-60
2023/01/12 06:38:19;;;;;;;5.70;1.47;;;9.40;99.90;;;;;;5034459;28;20257;-60
2023/01/12 06:40:46;;;;;;;5.63;1.57;;;9.40;99.90;;;;;;5034460;28;20237;-60
2023/01/12 06:43:13;;;;;;;9.70;2.00;;;9.50;99.90;;;;;;5034539;28;20206;-59
2023/01/12 06:45:40;;;;;;;6.17;1.87;;;9.50;99.90;;;;;;5034795;28;20210;-59
2023/01/12 06:48:06;;;;;;;12.20;2.33;;;9.50;99.90;;;;;;5034173;28;20237;-59
2023/01/12 06:50:34;;;;;;;8.50;1.60;;;9.60;99.90;;;;;;5034365;28;20217;-60
2023/01/12 06:53:03;;;;;;;6.43;2.00;;;9.70;99.90;;;;;;5034051;28;20570;-59
2023/01/12 06:55:30;;;;;;;7.03;1.70;;;9.80;99.90;;;;;;5034561;28;20587;-60
2023/01/12 06:58:00;;;;;;;7.57;2.10;;;9.90;99.90;;;;;;5034399;28;20241;-60
2023/01/12 07:00:27;;;;;;;5.97;1.47;;;10.00;99.90;;;;;;5035082;28;20632;-59
2023/01/12 07:02:54;;;;;;;8.80;1.57;;;10.00;99.90;;;;;;5034377;28;20230;-59
2023/01/12 07:05:21;;;;;;;7.07;2.43;;;10.10;99.90;;;;;;5034400;28;20206;-60
2023/01/12 07:07:47;;;;;;;5.27;1.80;;;10.10;99.90;;;;;;5032564;28;20233;-57
2023/01/12 07:10:16;;;;;;;5.97;1.70;;;10.10;99.90;;;;;;5032745;28;20206;-57
2023/01/12 07:12:43;;;;;;;7.17;1.80;;;10.20;99.90;;;;;;5032940;28;20202;-56
2023/01/12 07:15:11;;;;;;;5.63;1.80;;;10.20;99.90;;;;;;5033081;28;20206;-59
2023/01/12 07:17:38;;;;;;;7.77;1.60;;;10.10;99.90;;;;;;5032482;28;20280;-56
2023/01/12 07:20:05;;;;;;;6.63;1.53;;;10.00;99.90;;;;;;5032836;28;20589;-57
2023/01/12 07:22:33;;;;;;;8.30;2.20;;;10.00;99.90;;;;;;5033154;28;20233;-57
2023/01/12 07:24:59;;;;;;;5.00;1.60;;;9.90;99.90;;;;;;5033757;28;20207;-58
2023/01/12 07:27:28;;;;;;;4.80;1.70;;;10.00;99.90;;;;;;5033624;28;20238;-58
2023/01/12 07:29:54;;;;;;;8.77;1.80;;;10.10;99.90;;;;;;5033906;28;20206;-58
2023/01/12 07:32:25;;;;;;;7.30;1.67;;;10.10;99.90;;;;;;5033618;28;20225;-58
2023/01/12 07:34:52;;;;;;;5.93;1.43;;;10.20;99.90;;;;;;5033072;28;20213;-58
2023/01/12 07:37:19;;;;;;;9.47;1.83;;;10.20;99.90;;;;;;5032736;28;20222;-58
2023/01/12 07:39:46;;;;;;;5.20;1.70;;;10.30;99.90;;;;;;5033091;28;20238;-58
2023/01/12 07:42:25;;;;;;;5.97;1.40;;;10.40;99.90;;;;;;5032500;28;20237;-58
2023/01/12 07:44:53;;;;;;;6.87;1.67;;;10.40;99.90;;;;;;5032659;28;20209;-58
2023/01/12 07:47:20;;;;;;;4.57;1.60;;;10.50;99.90;;;;;;5031953;28;20623;-58
2023/01/12 07:49:47;;;;;;;6.07;1.70;;;10.50;99.90;;;;;;5032819;28;20293;-58
2023/01/12 07:52:14;;;;;;;9.83;1.80;;;10.50;99.90;;;;;;5032290;28;20300;-58
2023/01/12 07:54:41;;;;;;;6.97;1.77;;;10.60;99.90;;;;;;5032210;28;20218;-57
2023/01/12 07:57:10;;;;;;;6.53;1.50;;;10.60;99.90;;;;;;5031660;28;20210;-56
2023/01/12 07:59:37;;;;;;;5.57;1.83;;;10.60;99.90;;;;;;5032282;28;20307;-57
2023/01/12 08:02:06;;;;;;;4.23;1.60;;;10.60;99.90;;;;;;5031729;28;20690;-57
2023/01/12 08:04:33;;;;;;;5.40;1.43;;;10.70;99.90;;;;;;5031938;28;20236;-57
2023/01/12 08:07:00;;;;;;;5.27;1.63;;;10.70;99.90;;;;;;5031863;28;20210;-57
2023/01/12 08:09:27;;;;;;;5.63;1.70;;;10.70;99.90;;;;;;5031765;28;20612;-57
2023/01/12 08:11:54;;;;;;;7.37;1.80;;;10.70;99.90;;;;;;5031908;28;20206;-57
2023/01/12 08:14:30;;;;;;;5.77;1.80;;;10.70;99.90;;;;;;5031729;28;20210;-57
2023/01/12 08:17:00;;;;;;;5.17;1.67;;;10.80;99.90;;;;;;5031768;28;20202;-57
2023/01/12 08:19:36;;;;;;;7.90;1.87;;;10.80;99.90;;;;;;5031746;28;20232;-57
2023/01/12 08:22:04;;;;;;;6.80;1.60;;;10.80;99.90;;;;;;5031635;28;20225;-57
2023/01/12 08:24:36;;;;;;;6.53;1.37;;;10.90;99.90;;;;;;5031693;28;20625;-57
2023/01/12 08:27:06;;;;;;;4.77;1.40;;;10.90;99.90;;;;;;5031318;28;20573;-56
2023/01/12 08:29:39;;;;;;;5.77;1.90;;;10.90;99.90;;;;;;5031899;28;20261;-56
2023/01/12 08:32:07;;;;;;;5.90;1.57;;;10.90;99.90;;;;;;5032146;28;20203;-56
2023/01/12 08:34:36;;;;;;;6.00;1.70;;;11.00;99.90;;;;;;5031797;28;20241;-57
2023/01/12 08:37:08;;;;;;;7.60;2.00;;;11.00;99.90;;;;;;5034509;28;20253;-57
2023/01/12 08:39:35;;;;;;;6.07;1.97;;;11.00;99.90;;;;;;5035127;28;20663;-57
2023/01/12 08:42:02;;;;;;;4.63;1.37;;;11.10;99.90;;;;;;5035368;28;20261;-57
2023/01/12 08:44:32;;;;;;;7.30;2.10;;;11.00;99.90;;;;;;5035162;28;20222;-57
2023/01/12 08:46:59;;;;;;;6.03;1.90;;;11.00;99.90;;;;;;5034877;28;20248;-57
2023/01/12 08:49:28;;;;;;;4.27;1.90;;;11.10;99.90;;;;;;5034942;28;20240;-57
2023/01/12 08:51:57;;;;;;;5.63;1.50;;;11.10;99.90;;;;;;5035157;28;20202;-58
2023/01/12 08:54:24;;;;;;;6.10;1.80;;;11.20;99.90;;;;;;5035193;28;20211;-58
2023/01/12 08:56:52;;;;;;;9.20;1.80;;;11.20;99.90;;;;;;5035064;28;20785;-57
2023/01/12 08:59:19;;;;;;;6.90;2.67;;;11.10;99.90;;;;;;5035057;28;20230;-57
2023/01/12 09:01:45;;;;;;;6.53;1.80;;;11.00;99.90;;;;;;5035021;28;20225;-57
2023/01/12 09:04:12;;;;;;;4.70;1.43;;;11.00;99.90;;;;;;5035097;28;20301;-57
2023/01/12 09:06:41;;;;;;;4.43;1.60;;;11.00;99.90;;;;;;5034796;28;20297;-57
2023/01/12 09:09:11;;;;;;;4.17;1.40;;;10.90;99.90;;;;;;5035213;28;20237;-57
2023/01/12 09:11:39;;;;;;;5.93;1.60;;;10.90;99.90;;;;;;5035316;28;20212;-57
2023/01/12 09:14:05;;;;;;;6.00;1.60;;;10.90;99.90;;;;;;5035251;28;20202;-57
2023/01/12 09:16:33;;;;;;;6.37;1.50;;;10.80;99.90;;;;;;5034596;28;20213;-57
2023/01/12 09:19:00;;;;;;;5.17;1.00;;;10.90;99.90;;;;;;5034825;28;20226;-57
2023/01/12 09:21:28;;;;;;;5.07;1.40;;;10.90;99.90;;;;;;5034697;28;20210;-57
2023/01/12 09:23:56;;;;;;;4.50;1.20;;;11.00;99.90;;;;;;5034897;28;20205;-57
2023/01/12 09:26:27;;;;;;;6.17;1.30;;;11.00;99.90;;;;;;5034741;28;20210;-57
2023/01/12 09:28:55;;;;;;;4.60;1.30;;;11.10;99.90;;;;;;5035385;28;20586;-57
2023/01/12 09:31:23;;;;;;;8.23;1.47;;;11.10;99.90;;;;;;5034631;28;20206;-58
2023/01/12 09:33:50;;;;;;;4.23;1.60;;;11.10;99.90;;;;;;5034756;28;20198;-58
2023/01/12 09:36:19;;;;;;;5.47;1.47;;;11.10;99.90;;;;;;5034717;28;20745;-57
2023/01/12 09:38:46;;;;;;;3.93;1.80;;;11.30;99.90;;;;;;5034900;28;20223;-58
2023/01/12 09:46:57;;;;;;;7.70;1.80;;;11.30;99.90;;;;;;5034543;28;20206;-57
2023/01/12 09:47:02;;;;;;;4.83;1.50;;;11.40;99.90;;;;;;5033491;28;20260;-57
2023/01/12 09:49:33;;;;;;;3.27;1.43;;;11.40;99.90;;;;;;5034972;28;20313;-57
2023/01/12 09:52:08;;;;;;;4.23;1.37;;;11.40;99.90;;;;;;5034701;28;20294;-57
2023/01/12 09:54:35;;;;;;;3.23;1.30;;;11.40;99.90;;;;;;5034698;28;20210;-57
2023/01/12 09:57:11;;;;;;;5.37;1.10;;;11.40;99.90;;;;;;5034341;28;20297;-57
2023/01/12 09:59:52;;;;;;;6.67;1.57;;;11.40;99.90;;;;;;5035133;28;20213;-57
2023/01/12 10:02:19;;;;;;;8.50;2.10;;;11.60;99.90;;;;;;5035184;28;20228;-57
2023/01/12 10:04:48;;;;;;;5.07;1.33;;;11.70;99.90;;;;;;5034638;28;20214;-57
2023/01/12 10:07:17;;;;;;;4.27;1.33;;;11.80;99.90;;;;;;5034027;28;20217;-57
2023/01/12 10:09:45;;;;;;;4.93;1.30;;;11.90;99.90;;;;;;5034305;28;20206;-57
2023/01/12 10:12:21;;;;;;;6.63;1.50;;;12.00;99.90;;;;;;5034294;28;20205;-57
2023/01/12 10:15:03;;;;;;;5.03;1.50;;;12.00;99.90;;;;;;5034001;28;20697;-57
2023/01/12 10:17:37;;;;;;;3.53;1.60;;;12.10;99.90;;;;;;5033961;28;20234;-57
2023/01/12 10:20:15;;;;;;;4.20;1.43;;;12.20;99.90;;;;;;5034366;28;20221;-57
2023/01/12 10:22:45;;;;;;;3.90;1.20;;;12.30;99.90;;;;;;5034266;28;20222;-57
2023/01/12 10:25:19;;;;;;;3.50;1.20;;;12.40;99.90;;;;;;5034479;28;20336;-57
2023/01/12 10:27:49;;;;;;;5.77;1.93;;;12.40;99.90;;;;;;5034300;28;20731;-57
2023/01/12 10:30:19;;;;;;;3.77;1.10;;;12.50;99.90;;;;;;5034908;28;20202;-57
2023/01/12 10:32:46;;;;;;;4.17;1.07;;;12.50;99.90;;;;;;5034733;28;20260;-57
2023/01/12 10:35:15;;;;;;;4.13;1.63;;;12.50;99.90;;;;;;5033983;28;20211;-58
2023/01/12 10:37:48;;;;;;;3.87;1.30;;;12.50;99.90;;;;;;5033880;28;20233;-57
2023/01/12 10:40:27;;;;;;;6.37;1.30;;;12.50;99.90;;;;;;5034447;28;20504;-56
2023/01/12 10:43:20;;;;;;;4.90;1.17;;;12.60;99.90;;;;;;5034426;28;20226;-61
2023/01/12 10:46:03;;;;;;;3.40;1.23;;;12.60;99.90;;;;;;5034666;28;20217;-63
2023/01/12 10:48:30;;;;;;;7.40;1.67;;;12.60;99.90;;;;;;5034293;28;20245;-62
2023/01/12 10:50:59;;;;;;;4.60;1.43;;;12.70;99.90;;;;;;5034551;28;20233;-61
2023/01/12 10:53:31;;;;;;;4.17;1.40;;;12.80;99.90;;;;;;5034362;28;20212;-56
2023/01/12 10:55:58;;;;;;;5.70;1.70;;;12.80;99.90;;;;;;5033352;28;20485;-61
2023/01/12 10:58:29;;;;;;;3.97;1.27;;;12.80;99.90;;;;;;5031136;28;20728;-57
2023/01/12 11:00:58;;;;;;;5.87;1.80;;;12.80;99.90;;;;;;5031795;28;20688;-55
2023/01/12 11:03:31;;;;;;;6.17;1.80;;;12.80;99.90;;;;;;5030475;28;20637;-57
2023/01/12 11:06:15;;;;;;;4.33;1.17;;;12.70;99.90;;;;;;5033781;28;20210;-58
2023/01/12 11:08:42;;;;;;;5.23;1.50;;;12.70;99.90;;;;;;5031520;28;20222;-60
2023/01/12 11:11:22;;;;;;;5.43;1.43;;;12.80;99.90;;;;;;5032430;28;20705;-60
2023/01/12 11:13:53;;;;;;;4.27;1.50;;;12.80;99.90;;;;;;5032530;28;20212;-57
2023/01/12 11:16:23;;;;;;;6.33;1.93;;;12.80;99.90;;;;;;5032910;28;20211;-63
2023/01/12 11:18:59;;;;;;;3.97;1.07;;;12.80;99.90;;;;;;5032572;28;20230;-56
2023/01/12 11:21:29;;;;;;;4.53;1.30;;;12.80;99.90;;;;;;5032906;28;20264;-57
2023/01/12 11:24:00;;;;;;;7.97;1.50;;;12.80;99.90;;;;;;5032821;28;20327;-62
2023/01/12 11:26:34;;;;;;;3.97;1.00;;;12.70;99.90;;;;;;5033172;28;20202;-63
2023/01/12 11:29:09;;;;;;;6.37;1.13;;;12.80;99.90;;;;;;5033271;28;20222;-63
2023/01/12 11:31:42;;;;;;;4.80;1.80;;;12.90;99.90;;;;;;5032018;28;20644;-61
2023/01/12 11:34:15;;;;;;;2.77;1.27;;;12.90;99.90;;;;;;5032187;28;20202;-59
2023/01/12 11:36:46;;;;;;;3.90;1.07;;;12.80;99.90;;;;;;5032152;28;20187;-59
2023/01/12 11:39:17;;;;;;;7.97;2.67;;;12.80;99.90;;;;;;5032512;28;20234;-61
2023/01/12 11:44:37;;;;;;;4.33;1.00;;;12.80;99.90;;;;;;5029981;28;20230;-64
2023/01/12 11:47:08;;;;;;;1.93;1.00;;;12.80;99.90;;;;;;5011944;28;20211;-58
2023/01/12 11:49:41;;;;;;;4.63;1.10;;;12.90;99.90;;;;;;5012358;28;20218;-57
2023/01/12 11:52:10;;;;;;;4.80;1.20;;;13.20;99.90;;;;;;5011817;28;20209;-57
2023/01/12 11:54:38;;;;;;;3.60;1.50;;;13.20;99.90;;;;;;5011872;28;20701;-57
2023/01/12 11:57:40;;;;;;;2.50;0.90;;;13.40;99.90;;;;;;5012124;28;20584;-59
2023/01/12 12:00:25;;;;;;;1.97;1.07;;;13.70;99.90;;;;;;5011807;28;20201;-58
2023/01/12 12:03:06;;;;;;;3.53;1.70;;;13.80;99.90;;;;;;5012202;28;20223;-57
2023/01/12 12:05:43;;;;;;;2.13;0.87;;;13.80;99.90;;;;;;5012496;28;20487;-57
2023/01/12 12:08:23;;;;;;;3.57;1.20;;;13.80;99.90;;;;;;5012517;28;20249;-59
2023/01/12 12:10:56;;;;;;;1.83;0.67;;;13.90;99.90;;;;;;5013815;28;20585;-58
2023/01/12 12:13:35;;;;;;;3.47;1.40;;;14.00;99.90;;;;;;5016414;28;20623;-57
2023/01/12 12:16:23;;;;;;;2.70;0.87;;;14.00;99.90;;;;;;5017061;28;20249;-62
2023/01/12 12:19:21;;;;;;;2.70;0.80;;;14.00;99.90;;;;;;5016255;28;20226;-58
2023/01/12 12:21:50;;;;;;;3.43;0.67;;;14.00;99.90;;;;;;5016753;28;20238;-58
2023/01/12 12:24:35;;;;;;;2.00;0.53;;;14.10;99.90;;;;;;5017123;28;20223;-56
2023/01/12 12:27:12;;;;;;;1.83;0.70;;;14.20;99.90;;;;;;5017086;28;20301;-58
2023/01/12 12:29:57;;;;;;;1.20;0.53;;;14.30;99.90;;;;;;5017584;28;20215;-58
2023/01/12 12:32:34;;;;;;;1.77;0.57;;;14.40;99.90;;;;;;5017242;28;20235;-58
2023/01/12 12:35:25;;;;;;;2.63;0.90;;;14.60;99.90;;;;;;5015634;28;20218;-58
2023/01/12 12:38:02;;;;;;;3.20;1.40;;;14.90;99.90;;;;;;5016657;28;20602;-58
2023/01/12 12:46:21;;;;;;;2.93;0.80;;;15.10;99.90;;;;;;5016439;28;20616;-61
2023/01/12 12:48:57;;;;;;;3.07;0.90;;;15.00;99.90;;;;;;5015564;28;20238;-60
2023/01/12 12:51:28;;;;;;;1.13;0.60;;;15.00;99.90;;;;;;5015695;28;20210;-55
2023/01/12 12:53:56;;;;;;;4.07;0.73;;;14.90;99.90;;;;;;5015779;28;20207;-55
2023/01/12 12:56:25;;;;;;;4.83;1.47;;;15.00;99.90;;;;;;5015274;28;20203;-55
2023/01/12 12:58:53;;;;;;;2.73;1.00;;;15.00;99.90;;;;;;5015379;28;20241;-54
2023/01/12 13:01:54;;;;;;;3.43;0.70;;;14.90;99.90;;;;;;5015304;28;20206;-54
2023/01/12 13:04:57;;;;;;;2.00;0.67;;;14.70;99.90;;;;;;5015284;28;20226;-63
2023/01/12 13:07:26;;;;;;;2.88;0.73;;;14.70;99.90;;;;;;5010796;28;20504;-62
2023/01/12 13:10:09;;;;;;;2.63;0.80;;;14.70;99.90;;;;;;5015626;28;20207;-55
2023/01/12 13:12:37;;;;;;;3.37;0.90;;;14.60;99.90;;;;;;5015451;28;20213;-56
2023/01/12 13:15:28;;;;;;;2.13;0.70;;;14.50;99.90;;;;;;5014986;28;20211;-55
2023/01/12 13:17:55;;;;;;;1.63;1.00;;;14.40;99.90;;;;;;5014818;28;20231;-54
2023/01/12 13:21:01;;;;;;;4.03;0.80;;;14.40;99.90;;;;;;5015299;28;20211;-54
2023/01/12 13:24:20;;;;;;;2.13;0.80;;;14.40;99.90;;;;;;5015227;28;20230;-54
2023/01/12 13:26:51;;;;;;;45.90;36.77;;;14.30;99.90;;;;;;5014973;28;20310;-54
2023/01/12 13:29:41;;;;;;;2.50;0.70;;;14.30;99.90;;;;;;5015020;28;20300;-55
2023/01/12 13:32:35;;;;;;;3.73;0.70;;;14.20;99.90;;;;;;5014962;28;20239;-55
2023/01/12 13:35:02;;;;;;;2.43;0.77;;;14.20;99.90;;;;;;5014920;28;20284;-55
2023/01/12 13:37:38;;;;;;;2.33;0.70;;;14.10;99.90;;;;;;5014552;28;20227;-55
2023/01/12 13:40:16;;;;;;;3.70;0.90;;;14.10;99.90;;;;;;5014387;28;20588;-55
2023/01/12 13:45:29;;;;;;;2.17;1.07;;;14.20;99.90;;;;;;5014732;28;20209;-55
2023/01/12 13:47:56;;;;;;;1.17;0.80;;;14.20;99.90;;;;;;5014876;28;20242;-56